Time;durP1;ratioP1;P1;durP2;ratioP2;P2;SDS_P1;SDS_P2;PMS_P1;PMS_P2;Temp;Humidity;BMP_temperature;BMP_pressure;BME280_temperature;BME280_humidity;BME280_pressure;Samples;Min_cycle;Max_cycle;Signal;HPM_P1;HPM_P2
2021/07/25 00:01:07;;;;;;;28.65;14.32;;;;;;;16.19;100.00;93367.53;5095300;28;20281;-77
2021/07/25 00:03:34;;;;;;;31.23;14.40;;;;;;;16.19;100.00;93362.28;5095509;28;20282;-78
2021/07/25 00:06:00;;;;;;;25.70;15.20;;;;;;;16.19;100.00;93362.28;5095392;28;20194;-79
2021/07/25 00:08:27;;;;;;;33.28;14.13;;;;;;;16.22;100.00;93362.56;5094559;28;20252;-77
2021/07/25 00:10:57;;;;;;;27.88;14.25;;;;;;;16.19;100.00;93368.34;5095206;28;20233;-77
2021/07/25 00:13:23;;;;;;;28.98;15.18;;;;;;;16.21;100.00;93363.59;5094869;28;20202;-76
2021/07/25 00:15:50;;;;;;;32.88;16.00;;;;;;;16.24;100.00;93371.03;5095268;28;20565;-76
2021/07/25 00:18:19;;;;;;;31.58;15.85;;;;;;;16.23;100.00;93369.41;5095073;28;20653;-77
2021/07/25 00:20:45;;;;;;;30.85;16.67;;;;;;;16.24;100.00;93373.66;5095087;28;20206;-78
2021/07/25 00:23:17;;;;;;;37.33;16.38;;;;;;;16.22;100.00;93383.66;5095001;28;20202;-78
2021/07/25 00:25:46;;;;;;;31.75;15.77;;;;;;;16.20;100.00;93380.44;5095057;28;20202;-78
2021/07/25 00:28:17;;;;;;;31.67;16.15;;;;;;;16.19;100.00;93372.81;5095153;28;20292;-78
2021/07/25 00:30:44;;;;;;;34.38;18.75;;;;;;;16.16;100.00;93368.03;5093816;28;20815;-78
2021/07/25 00:33:10;;;;;;;31.85;17.42;;;;;;;16.17;100.00;93356.44;5093927;28;20198;-77
2021/07/25 00:35:37;;;;;;;28.98;16.35;;;;;;;16.20;100.00;93343.56;5094530;28;20226;-78
2021/07/25 00:38:04;;;;;;;32.38;16.58;;;;;;;16.18;100.00;93340.38;5094834;28;20198;-77
2021/07/25 00:40:38;;;;;;;32.00;14.20;;;;;;;16.14;100.00;93344.56;5094523;28;20557;-78
2021/07/25 00:43:05;;;;;;;36.78;18.00;;;;;;;16.15;100.00;93351.41;5093641;28;20508;-78
2021/07/25 00:45:33;;;;;;;31.48;15.90;;;;;;;16.12;100.00;93357.19;5094656;28;20232;-78
2021/07/25 00:48:00;;;;;;;29.77;15.10;;;;;;;16.13;100.00;93353.50;5094497;28;20221;-78
2021/07/25 00:50:27;;;;;;;33.15;16.33;;;;;;;16.12;100.00;93349.28;5094519;28;20226;-78
2021/07/25 00:52:54;;;;;;;28.60;14.48;;;;;;;16.08;100.00;93338.44;5094182;28;20198;-78
2021/07/25 00:55:21;;;;;;;27.75;14.30;;;;;;;16.07;100.00;93333.41;5094337;28;20208;-78
2021/07/25 00:57:48;;;;;;;31.55;14.75;;;;;;;16.04;100.00;93328.66;5094417;28;20228;-78
2021/07/25 01:00:15;;;;;;;31.33;15.25;;;;;;;16.05;100.00;93319.69;5094247;28;20202;-78
2021/07/25 01:02:51;;;;;;;27.67;13.95;;;;;;;16.05;100.00;93303.88;5094274;28;20212;-79
2021/07/25 01:05:30;;;;;;;22.60;12.10;;;;;;;15.96;100.00;93300.13;5094250;28;20202;-81
2021/07/25 01:08:05;;;;;;;19.27;10.57;;;;;;;15.91;100.00;93303.47;5094040;28;20554;-78
2021/07/25 01:10:33;;;;;;;24.13;10.23;;;;;;;15.84;100.00;93297.59;5094152;28;20261;-77
2021/07/25 01:13:04;;;;;;;14.23;8.85;;;;;;;15.77;100.00;93308.31;5094102;28;20202;-77
2021/07/25 01:15:32;;;;;;;13.27;8.25;;;;;;;15.70;100.00;93299.75;5093979;28;20202;-77
2021/07/25 01:18:01;;;;;;;20.55;9.48;;;;;;;15.68;100.00;93296.56;5093852;28;20198;-77
2021/07/25 01:20:29;;;;;;;17.48;9.05;;;;;;;15.67;100.00;93294.97;5094026;28;20206;-79
2021/07/25 01:22:58;;;;;;;14.32;8.30;;;;;;;15.62;100.00;93305.44;5093954;28;20297;-78
2021/07/25 01:25:26;;;;;;;11.43;7.60;;;;;;;15.60;100.00;93302.25;5093865;28;20200;-78
2021/07/25 01:27:58;;;;;;;13.77;8.50;;;;;;;15.59;100.00;93303.28;5093861;28;20201;-78
2021/07/25 01:30:27;;;;;;;16.95;8.05;;;;;;;15.55;100.00;93305.59;5093584;28;20228;-77
2021/07/25 01:32:57;;;;;;;13.80;7.65;;;;;;;15.52;100.00;93306.09;5093599;28;20206;-77
2021/07/25 01:35:25;;;;;;;14.15;8.10;;;;;;;15.46;100.00;93313.13;5093407;28;20237;-79
2021/07/25 01:37:54;;;;;;;12.32;7.22;;;;;;;15.44;100.00;93320.47;5093497;28;20664;-77
2021/07/25 01:40:24;;;;;;;10.65;7.20;;;;;;;15.44;100.00;93325.72;5093400;28;20686;-75
2021/07/25 01:42:51;;;;;;;15.20;6.80;;;;;;;15.44;100.00;93323.09;5093269;28;20247;-77
2021/07/25 01:45:18;;;;;;;11.02;6.75;;;;;;;15.45;100.00;93319.41;5093477;28;20213;-76
2021/07/25 01:47:45;;;;;;;12.82;7.25;;;;;;;15.47;100.00;93321.81;5093448;28;20202;-76
2021/07/25 01:50:13;;;;;;;13.98;7.10;;;;;;;15.47;100.00;93325.25;5093393;28;20240;-76
2021/07/25 01:52:39;;;;;;;9.90;6.70;;;;;;;15.45;100.00;93321.25;5093370;28;20197;-77
2021/07/25 01:55:08;;;;;;;11.45;6.78;;;;;;;15.44;100.00;93331.00;5093373;28;20205;-78
2021/07/25 01:57:35;;;;;;;11.70;6.97;;;;;;;15.43;100.00;93334.66;5093099;28;20198;-78
2021/07/25 02:00:01;;;;;;;12.52;6.20;;;;;;;15.47;100.00;93330.50;5093414;28;20204;-77
2021/07/25 02:02:28;;;;;;;12.07;7.72;;;;;;;15.49;100.00;93333.69;5093088;28;20553;-79
2021/07/25 02:04:54;;;;;;;10.73;7.05;;;;;;;15.50;100.00;93330.03;5092718;28;20194;-78
2021/07/25 02:07:21;;;;;;;11.30;6.82;;;;;;;15.54;100.00;93320.59;5093228;28;20488;-78
2021/07/25 02:09:47;;;;;;;10.70;6.65;;;;;;;15.70;100.00;93316.34;5092947;28;20218;-77
2021/07/25 02:12:15;;;;;;;7.97;5.20;;;;;;;15.90;100.00;93307.94;5092858;28;20198;-77
2021/07/25 02:14:42;;;;;;;9.20;4.93;;;;;;;16.02;100.00;93309.63;5093112;28;20198;-76
2021/07/25 02:17:10;;;;;;;7.38;4.80;;;;;;;16.04;100.00;93300.47;5093141;28;20242;-77
2021/07/25 02:19:37;;;;;;;8.02;4.43;;;;;;;16.27;100.00;93299.41;5093039;28;20198;-76
2021/07/25 02:22:05;;;;;;;7.78;4.70;;;;;;;16.18;100.00;93306.16;5093065;28;20234;-77
2021/07/25 02:24:31;;;;;;;9.70;5.38;;;;;;;16.03;100.00;93308.63;5092735;28;20232;-77
2021/07/25 02:26:58;;;;;;;8.52;5.05;;;;;;;15.96;100.00;93303.53;5093043;28;20206;-78
2021/07/25 02:29:26;;;;;;;8.20;5.50;;;;;;;15.93;100.00;93308.50;5093078;28;20194;-77
2021/07/25 02:31:53;;;;;;;8.05;5.25;;;;;;;16.02;100.00;93312.28;5092945;28;20240;-77
2021/07/25 02:34:19;;;;;;;8.48;5.60;;;;;;;15.98;100.00;93311.19;5092851;28;20574;-80
2021/07/25 02:36:46;;;;;;;10.50;5.50;;;;;;;15.90;100.00;93305.31;5092968;28;20208;-79
2021/07/25 02:39:12;;;;;;;13.57;6.78;;;;;;;15.86;100.00;93311.31;5092730;28;20202;-77
2021/07/25 02:41:39;;;;;;;10.60;6.25;;;;;;;15.99;100.00;93304.88;5092773;28;20206;-79
2021/07/25 02:44:06;;;;;;;14.38;5.60;;;;;;;16.00;100.00;93298.56;5092923;28;20202;-79
2021/07/25 02:46:34;;;;;;;11.70;5.43;;;;;;;15.89;100.00;93297.66;5092827;28;20202;-78
2021/07/25 02:49:00;;;;;;;10.27;5.75;;;;;;;15.81;100.00;93292.81;5092809;28;20237;-78
2021/07/25 02:51:27;;;;;;;10.95;6.40;;;;;;;15.80;100.00;93280.69;5092682;28;20234;-78
2021/07/25 02:53:53;;;;;;;11.13;6.40;;;;;;;15.75;100.00;93283.22;5092552;28;20201;-78
2021/07/25 02:56:20;;;;;;;10.60;6.82;;;;;;;15.69;100.00;93280.53;5095760;28;20202;-77
2021/07/25 02:58:46;;;;;;;13.30;6.72;;;;;;;15.65;100.00;93283.91;5096615;28;20683;-77
2021/07/25 03:01:14;;;;;;;10.85;6.28;;;;;;;15.64;100.00;93290.22;5096621;28;20212;-78
2021/07/25 03:03:42;;;;;;;12.70;6.43;;;;;;;15.60;100.00;93281.19;5096664;28;20543;-78
2021/07/25 03:06:09;;;;;;;10.50;6.40;;;;;;;15.57;100.00;93286.94;5096484;28;20225;-77
2021/07/25 03:08:36;;;;;;;11.82;6.68;;;;;;;15.53;100.00;93287.44;5096330;28;20203;-78
2021/07/25 03:11:07;;;;;;;13.30;6.80;;;;;;;15.53;100.00;93292.69;5096535;28;20248;-78
2021/07/25 03:13:33;;;;;;;12.63;7.03;;;;;;;15.47;100.00;93298.94;5096759;28;20197;-77
2021/07/25 03:16:01;;;;;;;12.27;7.55;;;;;;;15.47;100.00;93298.94;5096474;28;20206;-78
2021/07/25 03:18:28;;;;;;;12.38;7.78;;;;;;;15.46;100.00;93296.56;5096344;28;20224;-78
2021/07/25 03:20:56;;;;;;;11.20;6.63;;;;;;;15.34;100.00;93296.66;5096127;28;20599;-78
2021/07/25 03:23:22;;;;;;;15.52;7.28;;;;;;;15.29;100.00;93296.59;5093216;28;20217;-76
2021/07/25 03:25:49;;;;;;;15.00;8.35;;;;;;;15.29;100.00;93296.59;5076065;28;20194;-77
2021/07/25 03:28:15;;;;;;;12.98;7.80;;;;;;;15.29;100.00;93296.59;5075942;28;20202;-76
2021/07/25 03:30:42;;;;;;;18.10;8.65;;;;;;;15.29;100.00;93288.69;5075653;28;20227;-76
2021/07/25 03:33:10;;;;;;;12.68;7.88;;;;;;;15.23;100.00;93292.28;5075750;28;20199;-76
2021/07/25 03:35:36;;;;;;;13.65;8.05;;;;;;;15.24;100.00;93296.47;5075415;28;20226;-79
2021/07/25 03:38:04;;;;;;;19.13;8.73;;;;;;;15.26;100.00;93302.31;5075828;28;20222;-75
2021/07/25 03:40:31;;;;;;;17.90;11.23;;;;;;;15.24;100.00;93293.84;5074511;28;20798;-76
2021/07/25 03:42:58;;;;;;;19.48;9.98;;;;;;;15.25;100.00;93295.47;5075571;28;20650;-79
2021/07/25 03:45:25;;;;;;;16.48;9.52;;;;;;;15.21;100.00;93299.63;5075486;28;20199;-77
2021/07/25 03:47:52;;;;;;;15.23;9.40;;;;;;;15.21;100.00;93310.13;5075386;28;20202;-79
2021/07/25 03:50:19;;;;;;;18.40;9.73;;;;;;;15.24;100.00;93320.16;5075208;28;20681;-78
2021/07/25 03:52:45;;;;;;;16.10;10.02;;;;;;;15.29;100.00;93318.41;5075553;28;20201;-78
2021/07/25 03:55:16;;;;;;;17.05;10.45;;;;;;;15.34;100.00;93321.13;5075257;28;20581;-78
2021/07/25 03:57:43;;;;;;;19.63;11.02;;;;;;;15.39;100.00;93312.50;5075371;28;20565;-78
2021/07/25 04:00:10;;;;;;;17.38;9.82;;;;;;;15.39;100.00;93306.44;5075110;28;20553;-78
2021/07/25 04:02:37;;;;;;;17.63;10.45;;;;;;;15.42;100.00;93301.50;5075019;28;20256;-79
2021/07/25 04:05:03;;;;;;;19.08;9.60;;;;;;;15.41;100.00;93294.63;5075037;28;20650;-78
2021/07/25 04:07:30;;;;;;;17.65;10.07;;;;;;;15.40;100.00;93306.19;5075163;28;20297;-78
2021/07/25 04:09:56;;;;;;;21.33;10.05;;;;;;;15.40;100.00;93323.81;5079604;28;20202;-78
2021/07/25 04:12:24;;;;;;;16.77;10.02;;;;;;;15.43;100.00;93323.34;5095182;28;20256;-77
2021/07/25 04:14:50;;;;;;;16.55;9.85;;;;;;;15.43;100.00;93328.59;5095278;28;20204;-78
2021/07/25 04:17:17;;;;;;;18.42;9.75;;;;;;;15.40;100.00;93324.59;5095017;28;20199;-77
2021/07/25 04:19:43;;;;;;;19.33;9.88;;;;;;;15.46;100.00;93339.44;5095053;28;20627;-77
2021/07/25 04:22:10;;;;;;;19.10;10.32;;;;;;;15.50;100.00;93337.09;5094563;28;20202;-77
2021/07/25 04:24:36;;;;;;;16.52;9.48;;;;;;;15.52;100.00;93327.13;5094827;28;20239;-79
2021/07/25 04:27:03;;;;;;;17.35;9.52;;;;;;;15.59;100.00;93326.97;5094948;28;20251;-79
2021/07/25 04:29:32;;;;;;;15.18;8.95;;;;;;;15.63;100.00;93322.81;5094840;28;20205;-79
2021/07/25 04:31:59;;;;;;;16.40;9.50;;;;;;;15.65;100.00;93326.78;5094675;28;20233;-77
2021/07/25 04:34:26;;;;;;;16.63;9.00;;;;;;;15.73;100.00;93323.75;5094591;28;20696;-78
2021/07/25 04:36:53;;;;;;;19.80;10.07;;;;;;;15.82;100.00;93325.97;5094970;28;20614;-77
2021/07/25 04:39:20;;;;;;;19.23;9.75;;;;;;;15.93;100.00;93326.94;5094822;28;20561;-78
2021/07/25 04:41:51;;;;;;;18.98;9.40;;;;;;;15.98;100.00;93325.13;5094664;28;20194;-78
2021/07/25 04:44:24;;;;;;;12.45;8.20;;;;;;;16.01;100.00;93340.47;5094530;28;20736;-79
2021/07/25 04:46:54;;;;;;;12.75;8.15;;;;;;;16.01;100.00;93340.47;5094786;28;20205;-79
2021/07/25 04:49:24;;;;;;;13.57;8.82;;;;;;;16.16;100.00;93345.13;5094805;28;20198;-77
2021/07/25 04:51:53;;;;;;;21.85;8.77;;;;;;;16.16;100.00;93346.97;5094428;28;20233;-76
2021/07/25 04:54:21;;;;;;;13.10;8.68;;;;;;;16.31;100.00;93348.97;5094428;28;20194;-77
2021/07/25 04:56:58;;;;;;;11.82;7.88;;;;;;;16.46;100.00;93357.03;5094295;28;20198;-77
2021/07/25 04:59:28;;;;;;;10.95;7.32;;;;;;;16.54;100.00;93351.34;5094661;28;20225;-77
2021/07/25 05:02:00;;;;;;;13.75;8.00;;;;;;;16.31;100.00;93360.31;5094436;28;20202;-77
2021/07/25 05:04:27;;;;;;;13.68;7.90;;;;;;;16.36;100.00;93352.44;5094373;28;20206;-77
2021/07/25 05:06:54;;;;;;;16.58;8.13;;;;;;;16.35;100.00;93356.13;5094198;28;20194;-77
2021/07/25 05:09:21;;;;;;;15.15;9.30;;;;;;;16.51;100.00;93354.47;5093018;28;20425;-76
2021/07/25 05:11:53;;;;;;;13.43;7.95;;;;;;;16.63;100.00;93363.00;5094283;28;20233;-77
2021/07/25 05:14:22;;;;;;;12.38;7.10;;;;;;;16.73;100.00;93361.53;5094213;28;20206;-77
2021/07/25 05:17:01;;;;;;;11.40;7.47;;;;;;;16.83;100.00;93362.41;5094030;28;20221;-79
2021/07/25 05:19:35;;;;;;;9.82;6.35;;;;;;;17.08;100.00;93360.31;5093448;28;20604;-79
2021/07/25 05:22:11;;;;;;;11.65;7.10;;;;;;;17.09;100.00;93357.41;5093844;28;20198;-78
2021/07/25 05:24:44;;;;;;;9.38;6.15;;;;;;;17.07;100.00;93356.88;5080308;28;20191;-76
2021/07/25 05:27:17;;;;;;;7.22;4.93;;;;;;;17.15;100.00;93339.78;5073724;28;20249;-77
2021/07/25 05:29:45;;;;;;;10.75;5.10;;;;;;;17.30;100.00;93336.47;5073520;28;20202;-78
2021/07/25 05:32:13;;;;;;;6.57;4.78;;;;;;;17.38;100.00;93339.44;5072884;28;20276;-79
2021/07/25 05:34:40;;;;;;;9.27;4.50;;;;;;;17.71;100.00;93355.22;5073324;28;20227;-80
2021/07/25 05:37:06;;;;;;;6.82;4.45;;;;;;;17.99;100.00;93359.38;5073425;28;20205;-78
2021/07/25 05:39:33;;;;;;;10.52;4.43;;;;;;;18.22;100.00;93368.72;5073422;28;20585;-78
2021/07/25 05:41:59;;;;;;;6.65;4.07;;;;;;;18.44;100.00;93370.41;5073379;28;20214;-77
2021/07/25 05:44:26;;;;;;;7.65;4.63;;;;;;;18.52;100.00;93367.25;5073223;28;20604;-78
2021/07/25 05:46:53;;;;;;;9.65;3.90;;;;;;;18.66;100.00;93370.19;5073113;28;20249;-78
2021/07/25 05:49:21;;;;;;;6.88;3.97;;;;;;;18.72;100.00;93366.53;5073305;28;20202;-78
2021/07/25 05:51:48;;;;;;;9.23;3.97;;;;;;;18.67;100.00;93377.09;5073208;28;20321;-78
2021/07/25 05:54:14;;;;;;;7.07;4.25;;;;;;;18.92;100.00;93373.75;5072126;28;20434;-78
2021/07/25 05:56:41;;;;;;;9.68;4.10;;;;;;;18.84;100.00;93368.97;5073166;28;20195;-77
2021/07/25 05:59:10;;;;;;;7.70;4.20;;;;;;;18.79;100.00;93369.72;5073007;28;20203;-78
2021/07/25 06:01:36;;;;;;;5.63;3.58;;;;;;;18.84;100.00;93366.31;5073194;28;20271;-78
2021/07/25 06:04:04;;;;;;;8.18;3.53;;;;;;;18.94;100.00;93365.53;5073105;28;20290;-77
2021/07/25 06:06:33;;;;;;;7.13;3.95;;;;;;;19.00;100.00;93353.88;5073091;28;20198;-78
2021/07/25 06:08:59;;;;;;;12.57;4.35;;;;;;;18.99;100.00;93354.97;5073046;28;20745;-79
2021/07/25 06:11:26;;;;;;;10.15;4.03;;;;;;;18.83;100.00;93344.34;5073175;28;20233;-78
2021/07/25 06:13:53;;;;;;;5.63;3.47;;;;;;;18.82;100.00;93337.44;5073989;28;20565;-77
2021/07/25 06:16:20;;;;;;;11.60;4.22;;;;;;;18.77;100.00;93340.09;5089583;28;20198;-78
2021/07/25 06:18:48;;;;;;;7.57;3.78;;;;;;;18.62;100.00;93346.13;5093186;28;20208;-77
2021/07/25 06:21:14;;;;;;;6.82;4.07;;;;;;;18.43;100.00;93329.94;5093074;28;20205;-77
2021/07/25 06:23:42;;;;;;;7.82;4.05;;;;;;;18.51;100.00;93333.16;5092906;28;20194;-78
2021/07/25 06:26:09;;;;;;;9.02;4.70;;;;;;;18.52;100.00;93326.78;5093072;28;20318;-77
2021/07/25 06:28:35;;;;;;;9.07;4.32;;;;;;;18.27;100.00;93325.69;5092830;28;20205;-78
2021/07/25 06:31:02;;;;;;;6.43;4.30;;;;;;;18.28;100.00;93320.13;5095573;28;20212;-78
2021/07/25 06:33:29;;;;;;;8.20;4.50;;;;;;;18.31;100.00;93311.66;5097325;28;20243;-79
2021/07/25 06:35:56;;;;;;;9.88;4.10;;;;;;;18.48;100.00;93305.38;5096958;28;20275;-77
2021/07/25 06:38:24;;;;;;;7.90;4.47;;;;;;;18.81;100.00;93308.63;5096091;28;20934;-79
2021/07/25 06:40:54;;;;;;;8.50;4.25;;;;;;;18.89;100.00;93310.78;5096774;28;20205;-79
2021/07/25 06:43:22;;;;;;;8.18;4.07;;;;;;;18.98;100.00;93311.81;5097237;28;20228;-77
2021/07/25 06:45:49;;;;;;;8.50;4.70;;;;;;;19.04;100.00;93307.34;5096989;28;20280;-78
2021/07/25 06:48:20;;;;;;;8.00;4.38;;;;;;;19.20;100.00;93301.00;5097010;28;20209;-78
2021/07/25 06:50:48;;;;;;;7.07;4.28;;;;;;;19.34;100.00;93284.56;5096580;28;20538;-77
2021/07/25 06:53:15;;;;;;;7.95;3.95;;;;;;;19.41;100.00;93285.06;5096741;28;20339;-77
2021/07/25 06:55:41;;;;;;;6.63;3.95;;;;;;;19.35;100.00;93289.59;5096618;28;20525;-77
2021/07/25 06:58:09;;;;;;;8.57;3.95;;;;;;;19.67;100.00;93299.06;5096806;28;20198;-78
2021/07/25 07:00:36;;;;;;;6.78;4.07;;;;;;;20.01;100.00;93302.97;5096757;28;20209;-77
2021/07/25 07:03:03;;;;;;;7.68;4.07;;;;;;;20.30;100.00;93311.06;5096671;28;20198;-80
2021/07/25 07:05:31;;;;;;;7.18;3.90;;;;;;;20.42;100.00;93303.59;5096606;28;20743;-78
2021/07/25 07:07:59;;;;;;;5.95;3.80;;;;;;;20.73;100.00;93307.94;5096568;28;20291;-80
2021/07/25 07:10:27;;;;;;;6.60;3.97;;;;;;;20.86;100.00;93308.13;5097010;28;20205;-79
2021/07/25 07:12:56;;;;;;;6.72;3.45;;;;;;;20.87;100.00;93311.59;5096445;28;20261;-79
2021/07/25 07:15:25;;;;;;;7.25;4.10;;;;;;;20.75;100.00;93313.78;5096705;28;20190;-79
2021/07/25 07:17:53;;;;;;;5.38;3.35;;;;;;;20.96;100.00;93320.53;5096317;28;20653;-79
2021/07/25 07:20:20;;;;;;;7.53;3.97;;;;;;;21.24;100.00;93326.97;5096274;28;20243;-78
2021/07/25 07:22:52;;;;;;;5.85;3.88;;;;;;;20.89;100.00;93330.69;5096244;28;20209;-78
2021/07/25 07:25:19;;;;;;;7.25;4.43;;;;;;;20.56;100.00;93330.28;5076953;28;20298;-79
2021/07/25 07:27:45;;;;;;;7.05;3.70;;;;;;;20.37;100.00;93340.75;5076120;28;20248;-79
2021/07/25 07:30:12;;;;;;;5.32;3.72;;;;;;;20.17;100.00;93344.25;5075900;28;20203;-79
2021/07/25 07:32:40;;;;;;;7.22;3.97;;;;;;;19.80;100.00;93339.31;5075783;28;20313;-79
2021/07/25 07:35:07;;;;;;;9.73;5.22;;;;;;;19.73;100.00;93342.22;5075581;28;20226;-79
2021/07/25 07:37:34;;;;;;;6.55;4.20;;;;;;;19.82;100.00;93345.97;5075633;28;20203;-78
2021/07/25 07:40:00;;;;;;;7.30;4.53;;;;;;;19.80;100.00;93355.22;5075860;28;20211;-82
2021/07/25 07:42:27;;;;;;;7.18;4.43;;;;;;;19.59;100.00;93350.72;5075305;28;20205;-81
2021/07/25 07:44:54;;;;;;;6.70;3.92;;;;;;;19.46;100.00;93356.56;5075731;28;20203;-80
2021/07/25 07:47:22;;;;;;;6.68;4.00;;;;;;;19.77;100.00;93359.22;5075604;28;20202;-81
2021/07/25 07:49:50;;;;;;;7.60;4.20;;;;;;;19.48;100.00;93357.06;5075484;28;20210;-80
2021/07/25 07:52:17;;;;;;;8.10;4.30;;;;;;;19.45;100.00;93355.00;5075624;28;20234;-79
2021/07/25 07:54:43;;;;;;;8.98;4.38;;;;;;;19.60;100.00;93360.25;5075504;28;20206;-79
2021/07/25 07:57:10;;;;;;;8.85;4.18;;;;;;;19.51;100.00;93353.13;5075615;28;20199;-81
2021/07/25 07:59:36;;;;;;;7.10;4.30;;;;;;;19.36;100.00;93361.84;5075405;28;20198;-80
2021/07/25 08:02:03;;;;;;;8.07;4.30;;;;;;;19.36;100.00;93367.16;5075224;28;20207;-80
2021/07/25 08:04:29;;;;;;;7.10;4.40;;;;;;;19.36;100.00;93359.22;5075328;28;20686;-79
2021/07/25 08:06:57;;;;;;;8.13;4.28;;;;;;;19.36;100.00;93351.28;5075221;28;20202;-79
2021/07/25 08:09:24;;;;;;;9.93;4.25;;;;;;;19.16;100.00;93354.72;5076101;28;20203;-78
2021/07/25 08:11:52;;;;;;;7.35;4.30;;;;;;;19.25;100.00;93360.25;5094107;28;20222;-79
2021/07/25 08:14:19;;;;;;;7.05;3.90;;;;;;;19.58;100.00;93351.78;5095205;28;20204;-78
2021/07/25 08:16:46;;;;;;;10.20;4.43;;;;;;;19.62;100.00;93346.75;5095260;28;20206;-78
2021/07/25 08:19:13;;;;;;;8.82;4.43;;;;;;;19.72;100.00;93343.31;5095299;28;20202;-77
2021/07/25 08:21:40;;;;;;;8.93;4.28;;;;;;;19.91;100.00;93340.91;5095311;28;20199;-80
2021/07/25 08:24:08;;;;;;;5.85;4.10;;;;;;;20.23;100.00;93337.88;5094942;28;20736;-80
2021/07/25 08:26:36;;;;;;;7.75;4.07;;;;;;;20.51;100.00;93346.25;5095154;28;20200;-78
2021/07/25 08:29:04;;;;;;;13.68;4.45;;;;;;;20.53;100.00;93344.09;5094851;28;20197;-79
2021/07/25 08:31:30;;;;;;;10.32;4.60;;;;;;;20.59;100.00;93344.88;5094659;28;20198;-79
2021/07/25 08:33:57;;;;;;;7.05;4.05;;;;;;;21.02;100.00;93345.97;5095012;28;20209;-78
2021/07/25 08:36:23;;;;;;;8.32;4.40;;;;;;;20.89;100.00;93344.72;5094562;28;20241;-79
2021/07/25 08:38:50;;;;;;;5.60;3.65;;;;;;;21.20;100.00;93344.53;5094841;28;20281;-79
2021/07/25 08:41:28;;;;;;;8.27;3.97;;;;;;;21.52;100.00;93337.13;5094873;28;20247;-79
2021/07/25 08:44:18;;;;;;;7.80;4.03;;;;;;;21.81;100.00;93348.53;5094540;28;20198;-79
2021/07/25 08:46:45;;;;;;;7.53;4.38;;;;;;;21.68;100.00;93345.75;5094528;28;20205;-79
2021/07/25 08:49:17;;;;;;;6.07;3.78;;;;;;;21.90;100.00;93347.91;5094585;28;20202;-79
2021/07/25 08:51:59;;;;;;;6.88;3.92;;;;;;;21.77;100.00;93350.19;5094483;28;20208;-78
2021/07/25 08:54:29;;;;;;;6.93;3.83;;;;;;;22.35;100.00;93348.53;5093744;28;20222;-78
2021/07/25 08:57:00;;;;;;;8.60;4.40;;;;;;;21.75;100.00;93359.50;5094941;28;20210;-80
2021/07/25 08:59:30;;;;;;;8.57;4.32;;;;;;;21.85;100.00;93358.59;5094558;28;20644;-81
2021/07/25 09:02:00;;;;;;;9.68;4.40;;;;;;;21.56;100.00;93372.69;5094720;28;20228;-80
2021/07/25 09:04:28;;;;;;;6.93;3.85;;;;;;;21.38;100.00;93366.97;5094370;28;20469;-80
2021/07/25 09:06:56;;;;;;;6.97;4.05;;;;;;;20.79;100.00;93376.63;5094187;28;20202;-81
2021/07/25 09:09:23;;;;;;;7.18;4.43;;;;;;;20.29;100.00;93384.50;5094444;28;20205;-81
2021/07/25 09:11:50;;;;;;;10.40;4.93;;;;;;;19.92;100.00;93384.88;5094159;28;20283;-81
2021/07/25 09:14:18;;;;;;;9.63;4.57;;;;;;;19.50;100.00;93389.41;5094115;28;20202;-82
2021/07/25 09:16:44;;;;;;;8.15;4.57;;;;;;;19.21;100.00;93392.53;5094126;28;20211;-82
2021/07/25 09:19:11;;;;;;;7.60;4.53;;;;;;;19.08;100.00;93393.06;5094012;28;20198;-80
2021/07/25 09:21:40;;;;;;;8.13;4.63;;;;;;;18.91;100.00;93397.81;5094251;28;20587;-80
2021/07/25 09:24:17;;;;;;;7.20;5.18;;;;;;;18.86;100.00;93407.31;5093989;28;20208;-80
2021/07/25 09:26:59;;;;;;;10.48;4.82;;;;;;;18.84;100.00;93403.34;5094136;28;20202;-81
2021/07/25 09:29:29;;;;;;;8.07;5.25;;;;;;;18.72;100.00;93403.56;5094070;28;20193;-81
2021/07/25 09:32:15;;;;;;;10.52;5.43;;;;;;;18.71;100.00;93406.44;5094339;28;20206;-78
2021/07/25 09:34:42;;;;;;;7.85;4.60;;;;;;;18.65;100.00;93409.09;5093794;28;20308;-78
2021/07/25 09:37:11;;;;;;;12.98;6.07;;;;;;;18.59;100.00;93412.75;5094027;28;20190;-78
2021/07/25 09:39:39;;;;;;;15.20;5.82;;;;;;;18.46;100.00;93414.03;5093602;28;20206;-78
2021/07/25 09:42:08;;;;;;;8.85;6.25;;;;;;;18.35;100.00;93412.38;5093604;28;20289;-81
2021/07/25 09:44:56;;;;;;;11.20;6.78;;;;;;;18.37;100.00;93410.28;5093823;28;20202;-79
2021/07/25 09:47:28;;;;;;;11.90;6.35;;;;;;;18.13;100.00;93409.91;5093666;28;20202;-81
2021/07/25 09:49:55;;;;;;;11.93;6.85;;;;;;;18.11;100.00;93410.16;5093565;28;20198;-80
2021/07/25 09:52:29;;;;;;;14.07;6.80;;;;;;;17.99;100.00;93409.56;5093580;28;20218;-80
2021/07/25 09:54:57;;;;;;;9.68;6.45;;;;;;;17.95;100.00;93392.63;5093622;28;20301;-79
2021/07/25 09:57:25;;;;;;;12.70;6.40;;;;;;;17.96;100.00;93394.22;5087678;28;20289;-81
2021/07/25 09:59:53;;;;;;;12.20;7.00;;;;;;;18.08;100.00;93386.88;5093544;28;20301;-84
2021/07/25 10:02:34;;;;;;;9.88;6.28;;;;;;;18.16;100.00;93387.47;5092814;28;20194;-85
2021/07/25 10:05:09;;;;;;;11.77;7.25;;;;;;;18.25;100.00;93385.91;5093128;28;20198;-79
2021/07/25 10:07:42;;;;;;;11.13;6.97;;;;;;;18.33;100.00;93388.06;5093545;28;20198;-79
2021/07/25 10:10:10;;;;;;;12.25;7.68;;;;;;;18.20;100.00;93393.81;5092249;28;20454;-79
2021/07/25 10:12:38;;;;;;;10.63;6.88;;;;;;;18.12;100.00;93392.47;5093235;28;20229;-77
2021/07/25 10:15:08;;;;;;;11.35;7.45;;;;;;;18.33;100.00;93395.19;5093135;28;20204;-79
2021/07/25 10:17:36;;;;;;;12.68;7.00;;;;;;;18.43;100.00;93392.59;5092923;28;20202;-77
2021/07/25 10:20:08;;;;;;;11.63;6.80;;;;;;;18.56;100.00;93401.91;5093330;28;20210;-80
2021/07/25 10:22:36;;;;;;;8.40;5.95;;;;;;;18.57;100.00;93403.47;5093071;28;20290;-77
2021/07/25 10:25:05;;;;;;;10.35;6.55;;;;;;;18.60;100.00;93414.34;5092856;28;20206;-80
2021/07/25 10:27:32;;;;;;;9.52;6.25;;;;;;;18.58;100.00;93415.66;5092836;28;20300;-78
2021/07/25 10:30:02;;;;;;;9.85;6.40;;;;;;;18.65;100.00;93418.84;5092514;28;20660;-79
2021/07/25 10:32:33;;;;;;;13.15;5.90;;;;;;;18.60;100.00;93416.19;5093080;28;20226;-80
2021/07/25 10:35:03;;;;;;;12.93;6.80;;;;;;;18.62;100.00;93411.47;5093039;28;20230;-80
2021/07/25 10:37:30;;;;;;;10.98;6.63;;;;;;;18.34;100.00;93410.81;5093027;28;20225;-80
2021/07/25 10:40:00;;;;;;;9.38;6.20;;;;;;;18.32;100.00;93412.91;5092877;28;20202;-80
2021/07/25 10:42:28;;;;;;;10.43;6.55;;;;;;;18.23;100.00;93417.09;5093177;28;20591;-80
2021/07/25 10:44:55;;;;;;;8.60;5.95;;;;;;;18.27;100.00;93413.69;5092630;28;20653;-79
2021/07/25 10:47:26;;;;;;;12.20;6.13;;;;;;;18.35;100.00;93414.22;5092998;28;20205;-79
2021/07/25 10:50:05;;;;;;;13.40;7.03;;;;;;;18.36;100.00;93402.63;5092661;28;20679;-79
2021/07/25 10:53:00;;;;;;;10.85;6.18;;;;;;;18.35;100.00;93407.09;5092935;28;20225;-80
2021/07/25 10:55:52;;;;;;;9.90;6.25;;;;;;;18.39;100.00;93407.41;5092940;28;20206;-79
2021/07/25 10:58:20;;;;;;;12.55;6.55;;;;;;;18.37;100.00;93410.28;5093014;28;20213;-79
2021/07/25 11:00:50;;;;;;;10.55;6.43;;;;;;;18.39;100.00;93412.69;5092648;28;20202;-79
2021/07/25 11:03:43;;;;;;;10.73;6.38;;;;;;;18.31;100.00;93421.88;5092655;28;20251;-79
2021/07/25 11:06:20;;;;;;;10.10;7.32;;;;;;;18.26;100.00;93413.94;5091825;28;20437;-80
2021/07/25 11:08:50;;;;;;;12.15;7.22;;;;;;;18.18;100.00;93411.78;5092757;28;20680;-80
2021/07/25 11:11:56;;;;;;;12.18;6.85;;;;;;;18.01;100.00;93418.03;5092523;28;20216;-81
2021/07/25 11:15:06;;;;;;;11.80;8.05;;;;;;;17.84;100.00;93412.09;5092632;28;20225;-80
2021/07/25 11:17:52;;;;;;;14.43;8.05;;;;;;;17.75;100.00;93417.84;5095600;28;20194;-80
2021/07/25 11:20:45;;;;;;;12.65;6.32;;;;;;;17.48;100.00;93414.47;5096258;28;20280;-80
2021/07/25 11:23:33;;;;;;;8.32;4.25;;;;;;;17.29;100.00;93424.59;5091668;28;20197;-79
2021/07/25 11:26:34;;;;;;;8.60;4.53;;;;;;;16.97;100.00;93412.16;5075861;28;20604;-78
2021/07/25 11:29:03;;;;;;;7.57;4.22;;;;;;;16.85;100.00;93403.59;5072950;28;20194;-79